Flight Track Log - Related Links

Times and Time Zones

All times are in EDT time to prevent confusion due to time zone crossing. See the SKW5336 flight status page for this flight to view local times or setup timezone preferences in your user account.

Time Position Orientation Groundspeed Altitude Reporting Facility
EDT Latitude Longitude Course Direction KTS MPH feet Rate Location/Type
Sun 09:06:15 AM 45.5795 -122.5602 318° Northwest  Level FlightAware Approximate
Sun 09:06:56 AM 45.5831 -122.5647 102° East 146 168 700  Level Seattle Center
Sun 09:08:03 AM 45.5719 -122.4917 105° East 183 211 2,800 1,875 Climbing Seattle Center
Sun 09:09:04 AM 45.5561 -122.4083 113° Southeast 229 264 4,700 2,187 Climbing Seattle Center
Sun 09:09:50 AM 45.5361 -122.3414 197° South 214 246 6,700 2,717 Climbing Seattle Center
Sun 09:10:50 AM 45.4742 -122.3681 243° Southwest 255 293 9,500 2,500 Climbing Seattle Center
Sun 09:11:50 AM 45.4400 -122.4633 239° Southwest 273 314 11,700 2,033 Climbing Seattle Center
Sun 09:12:51 AM 45.3981 -122.5617 238° Southwest 286 329 13,600 1,835 Climbing Seattle Center
Sun 09:13:51 AM 45.3542 -122.6633 238° Southwest 297 342 15,400 1,800 Climbing Seattle Center
Sun 09:14:51 AM 45.3081 -122.7686 239° Southwest 308 354 17,200 1,785 Climbing Seattle Center
Sun 09:15:52 AM 45.2617 -122.8775 227° Southwest 319 367 19,000 1,785 Climbing Seattle Center
Sun 09:16:52 AM 45.2006 -122.9711 190° South 331 381 20,800 1,587 Climbing Seattle Center
Sun 09:17:53 AM 45.1106 -122.9936 189° South 336 387 22,200 1,339 Climbing Seattle Center
Sun 09:18:53 AM 45.0175 -123.0133 190° South 338 389 23,500 1,289 Climbing Seattle Center
Sun 09:19:54 AM 44.9233 -123.0369 189° South 340 391 24,800 744 Climbing Seattle Center
Sun 09:20:54 AM 44.8261 -123.0597 189° South 347 399 25,000 99 Climbing Seattle Center
Sun 09:21:55 AM 44.7192 -123.0836 189° South 378 435 25,000  Level Seattle Center
Sun 09:22:55 AM 44.6106 -123.1086 189° South 392 451 25,000  Level Seattle Center
Sun 09:23:56 AM 44.5019 -123.1331 179° South 394 453 25,000  Level Seattle Center
Sun 09:24:56 AM 44.3956 -123.1314 178° South 383 441 25,000  Level Seattle Center
Sun 09:25:57 AM 44.2908 -123.1269 178° South 377 434 25,000  Level Seattle Center
Sun 09:26:58 AM 44.1861 -123.1225 179° South 377 434 25,000  Level Seattle Center
Sun 09:27:58 AM 44.0819 -123.1194 179° South 375 432 25,000  Level Seattle Center
Sun 09:28:59 AM 43.9756 -123.1161 178° South 371 427 25,000  Level Seattle Center
Sun 09:29:59 AM 43.8733 -123.1117 179° South 367 422 25,000  Level Seattle Center
Sun 09:31:00 AM 43.7714 -123.1086 179° South 367 422 25,000  Level Seattle Center
Sun 09:32:01 AM 43.6694 -123.1056 178° South 366 421 25,000  Level Seattle Center
Sun 09:33:01 AM 43.5686 -123.1014 179° South 364 419 25,000  Level Seattle Center
Sun 09:34:02 AM 43.4686 -123.0981 179° South 361 415 25,000  Level Seattle Center
Sun 09:35:02 AM 43.3697 -123.0961 178° South 357 411 25,000  Level Seattle Center
Sun 09:36:03 AM 43.2711 -123.0925 179° South 355 409 25,000  Level Seattle Center
Sun 09:37:03 AM 43.1731 -123.0892 178° South 354 407 25,000  Level Seattle Center
Sun 09:38:04 AM 43.0753 -123.0853 178° South 352 405 25,000  Level Seattle Center
Sun 09:39:05 AM 42.9767 -123.0811 179° South 353 406 25,000  Level Seattle Center
Sun 09:40:05 AM 42.8792 -123.0781 178° South 352 405 25,000  Level Seattle Center
Sun 09:41:06 AM 42.7814 -123.0744 178° South 351 404 25,000  Level Seattle Center
Sun 09:42:06 AM 42.6714 -123.0692 179° South 351 404 25,000  Level Seattle Center
Sun 09:43:07 AM 42.5731 -123.0669 178° South 352 405 25,000  Level Seattle Center
Sun 09:44:07 AM 42.4750 -123.0633 179° South 353 406 25,000  Level Seattle Center
Sun 09:45:08 AM 42.3781 -123.0603 179° South 351 404 25,000  Level Seattle Center
Sun 09:46:09 AM 42.2811 -123.0581 179° South 350 403 25,000  Level Seattle Center
Sun 09:47:09 AM 42.1844 -123.0553 178° South 349 402 25,000  Level Seattle Center
Sun 09:48:10 AM 42.0872 -123.0511 179° South 349 402 25,000  Level Seattle Center
Sun 09:49:11 AM 41.9908 -123.0489 178° South 348 400 25,000  Level Seattle Center
Sun 09:50:11 AM 41.8939 -123.0450 179° South 349 402 25,000  Level Seattle Center
Sun 09:51:12 AM 41.7986 -123.0436 179° South 346 398 25,000  Level Seattle Center
Sun 09:52:13 AM 41.7025 -123.0406 178° South 346 398 25,000  Level Seattle Center
Sun 09:53:13 AM 41.6061 -123.0361 178° South 347 399 25,000  Level Seattle Center
Sun 09:54:14 AM 41.5103 -123.0311 178° South 346 398 25,000  Level Seattle Center
Sun 09:55:15 AM 41.4147 -123.0269 178° South 345 397 25,000  Level Seattle Center
Sun 09:56:15 AM 41.3139 -123.0225 178° South 342 394 25,000  Level Seattle Center
Sun 09:57:16 AM 41.2194 -123.0181 178° South 340 391 25,000  Level Seattle Center
Sun 09:58:17 AM 41.1250 -123.0128 179° South 339 390 25,000  Level Seattle Center
Sun 09:59:17 AM 41.0306 -123.0097 177° South 340 391 25,000  Level Seattle Center
Sun 10:00:18 AM 40.9358 -123.0039 178° South 340 391 25,000  Level Seattle Center
Sun 10:01:19 AM 40.8392 -122.9989 178° South 340 391 25,000  Level Seattle Center
Sun 10:01:49 AM 40.7836 -122.9961 177° South 344 396 25,000  Level Oakland Center
Sun 10:02:49 AM 40.6897 -122.9906 179° South 344 396 25,000  Level Oakland Center
Sun 10:03:49 AM 40.5939 -122.9878 178° South 344 396 25,000  Level Oakland Center
Sun 10:04:49 AM 40.5003 -122.9825 177° South 344 396 25,000  Level Oakland Center
Sun 10:05:50 AM 40.4044 -122.9769 179° South 344 396 25,000  Level Oakland Center
Sun 10:06:49 AM 40.3086 -122.9742 179° South 344 396 25,000  Level Oakland Center
Sun 10:07:49 AM 40.2128 -122.9714 178° South 344 396 25,000  Level Oakland Center
Sun 10:08:49 AM 40.1192 -122.9661 178° South 344 396 25,000  Level Oakland Center
Sun 10:09:49 AM 40.0150 -122.9603 178° South 344 396 25,000  Level Oakland Center
Sun 10:10:49 AM 39.9192 -122.9550 177° South 344 396 25,000  Level Oakland Center
Sun 10:11:49 AM 39.8233 -122.9494 179° South 344 396 25,000  Level Oakland Center
Sun 10:12:49 AM 39.7381 -122.9469 176° South 344 396 25,000  Level Oakland Center
Sun 10:13:49 AM 39.6444 -122.9392 174° South 344 396 25,000  Level Oakland Center
Sun 10:14:49 AM 39.5508 -122.9258 174° South 344 396 25,000  Level Oakland Center
Sun 10:15:49 AM 39.4572 -122.9125 172° South 349 402 25,000  Level Oakland Center
Sun 10:16:49 AM 39.3636 -122.8964 174° South 344 396 25,000  Level Oakland Center
Sun 10:17:49 AM 39.2700 -122.8831 172° South 344 396 25,000  Level Oakland Center
Sun 10:18:49 AM 39.1639 -122.8642 178° South 350 403 25,000  Level Oakland Center
Sun 10:19:49 AM 39.0722 -122.8592 171° South 350 403 25,000 -100 Level Oakland Center
Sun 10:20:49 AM 38.9786 -122.8406 171° South 350 403 24,800 -600 Descending Oakland Center
Sun 10:21:49 AM 38.8850 -122.8222 174° South 345 397 23,800 -1,150 Descending Oakland Center
Sun 10:22:49 AM 38.7872 -122.8092 173° South 345 397 22,500 -1,300 Descending Oakland Center
Sun 10:23:49 AM 38.6917 -122.7933 174° South 352 405 21,200 -1,300 Descending Oakland Center
Sun 10:24:49 AM 38.5958 -122.7803 173° South 352 405 19,900 -1,300 Descending Oakland Center
Sun 10:25:49 AM 38.5022 -122.7647 174° South 352 405 18,600 -1,250 Descending Oakland Center
Sun 10:26:49 AM 38.4086 -122.7519 174° South 352 405 17,400 -1,250 Descending Oakland Center
Sun 10:27:49 AM 38.3150 -122.7389 174° South 347 399 16,100 -1,300 Descending Oakland Center
Sun 10:28:49 AM 38.2275 -122.7264 173° South 340 391 14,800 -1,400 Descending Oakland Center
Sun 10:29:49 AM 38.1256 -122.7106 173° South 325 374 13,300 -1,400 Descending Oakland Center
Sun 10:30:49 AM 38.0403 -122.6981 171° South 333 383 12,000 -1,150 Descending Oakland Center
Sun 10:31:49 AM 37.9486 -122.6803 163° South 333 383 11,000 -500 Descending Oakland Center
Sun 10:32:49 AM 37.8822 -122.6550 138° Southeast 333 383 11,000  Level Oakland Center
Sun 10:33:29 AM 37.8333 -122.6000 142° Southeast 329 379 11,000  Level Northern Cal TRACON
Sun 10:34:29 AM 37.7667 -122.5333 122° Southeast 261 300 11,000  Level Northern Cal TRACON
Sun 10:35:23 AM 37.7333 -122.4667 117° Southeast 253 291 11,000 -632 Level Northern Cal TRACON
Sun 10:36:23 AM 37.7000 -122.3833 104° East 249 287 9,800 -1,400 Descending Northern Cal TRACON
Sun 10:37:23 AM 37.6833 -122.3000 104° East 241 277 8,200 -1,524 Descending Northern Cal TRACON
Sun 10:38:29 AM 37.6667 -122.2167 122° Southeast 246 283 6,600 -1,488 Descending Northern Cal TRACON
Sun 10:39:24 AM 37.6333 -122.1500 218° Southwest 224 258 5,200 -1,339 Descending Northern Cal TRACON
Sun 10:40:30 AM 37.6000 -122.1833 218° Southwest 195 224 3,900 -1,182 Descending Northern Cal TRACON

Login

Don't have an account? Register now (free) for customized features, flight alerts, and more!